Weather at Newark Liberty International Airport

Public forecast

Using degrees Fahrenheit for public forecast. Weather courtesy of forecast.io.

Current aviation weather report (METAR) for Newark Liberty International Airport

Retrieved 2020/10/22 02:42 UTC (0 seconds ago):

KEWR 220242Z 00000KT 3SM BR SCT002 BKN014 BKN034 18/18 A3023 RMK AO2 VIS E 2 T01780178

Aviation forecast (TAF) for Newark Liberty International Airport

Retrieved 2020-10-22 00:45 UTC (1 hour ago):

TAF KEWR 212341Z 2200/2306 VRB05KT P6SM SCT010 OVC020 FM220400 VRB03KT 3SM BR OVC003 TEMPO 2204/2206 1/2SM FG FM220600 VRB03KT 5SM BR BKN004 TEMPO 2206/2208 1/2SM FG FM221400 VRB03KT 3SM BR BKN006 FM221600 05003KT P6SM SCT006 BKN015 FM221800 10003KT P6SM BKN035 FM222100 16004KT P6SM SCT006 BKN025